createdAt,value
2022-10-16T00:01:23.263Z,99637.56
2022-10-16T00:04:11.574Z,99643.41
2022-10-16T00:07:00.776Z,99642.53
2022-10-16T00:09:48.864Z,99647.00
2022-10-16T00:12:36.777Z,99645.09
2022-10-16T00:15:24.710Z,99639.56
2022-10-16T00:18:12.655Z,99648.97
2022-10-16T00:21:04.691Z,99641.41
2022-10-16T00:23:54.642Z,99630.00
2022-10-16T00:26:42.695Z,99639.56
2022-10-16T00:29:30.653Z,99634.06
2022-10-16T00:32:19.237Z,99640.75
2022-10-16T00:35:07.969Z,99594.88
2022-10-16T00:37:55.851Z,99630.00
2022-10-16T00:40:45.117Z,99636.34
2022-10-16T00:43:39.808Z,99634.84
2022-10-16T00:46:30.960Z,99621.47
2022-10-16T00:49:22.198Z,99631.63
2022-10-16T00:52:10.170Z,99634.41
2022-10-16T00:54:58.805Z,99631.69
2022-10-16T00:57:50.019Z,99605.84
2022-10-16T01:00:38.231Z,99643.50
2022-10-16T01:03:31.592Z,99644.03
2022-10-16T01:06:32.896Z,99649.16
2022-10-16T01:09:26.056Z,99616.94
2022-10-16T01:12:18.236Z,99645.16
2022-10-16T01:15:13.529Z,99616.88
2022-10-16T01:18:10.436Z,99639.97
2022-10-16T01:21:04.582Z,99640.38
2022-10-16T01:24:03.535Z,99647.09
2022-10-16T01:27:26.538Z,99650.72
2022-10-16T01:30:20.341Z,99651.38
2022-10-16T01:33:13.427Z,99662.03
2022-10-16T01:36:08.794Z,99653.28
2022-10-16T01:39:02.558Z,99657.69
2022-10-16T01:41:56.261Z,99665.59
2022-10-16T01:44:47.506Z,99658.97
2022-10-16T01:47:37.358Z,99676.03
2022-10-16T01:50:26.629Z,99682.94
2022-10-16T01:53:17.554Z,99681.28
2022-10-16T01:56:10.233Z,99684.06
2022-10-16T01:59:04.840Z,99690.41
2022-10-16T02:01:57.670Z,99674.91
2022-10-16T02:04:49.500Z,99590.06
2022-10-16T02:07:37.430Z,99669.34
2022-10-16T02:10:26.310Z,99662.84
2022-10-16T02:13:19.076Z,99667.41
2022-10-16T02:16:08.237Z,99673.03
2022-10-16T02:18:57.518Z,99655.94
2022-10-16T02:21:51.990Z,99657.94
2022-10-16T02:24:49.678Z,99651.63
2022-10-16T02:27:43.752Z,99643.72
2022-10-16T02:30:37.154Z,99647.22
2022-10-16T02:33:27.341Z,99656.31
2022-10-16T02:36:16.967Z,99656.13
2022-10-16T02:39:06.314Z,99657.91
2022-10-16T02:41:54.245Z,99662.28
2022-10-16T02:44:42.252Z,99664.53
2022-10-16T02:47:30.134Z,99650.50
2022-10-16T02:50:18.910Z,99658.56
2022-10-16T02:53:08.122Z,99667.81
2022-10-16T02:55:56.018Z,99667.06
2022-10-16T02:58:43.888Z,99661.50
2022-10-16T03:01:32.310Z,99666.31
2022-10-16T03:04:20.530Z,99660.47
2022-10-16T03:07:08.534Z,99677.78
2022-10-16T03:09:58.350Z,99677.50
2022-10-16T03:12:46.325Z,99674.66
2022-10-16T03:15:34.265Z,99670.50
2022-10-16T03:18:22.209Z,99663.44
2022-10-16T03:21:10.099Z,99665.50
2022-10-16T03:23:58.032Z,99669.28
2022-10-16T03:26:47.262Z,99677.16
2022-10-16T03:29:35.256Z,99674.28
2022-10-16T03:32:23.403Z,99682.63
2022-10-16T03:35:11.386Z,99673.50
2022-10-16T03:37:59.286Z,99674.97
2022-10-16T03:40:47.187Z,99671.81
2022-10-16T03:43:36.825Z,99674.59
2022-10-16T03:46:24.790Z,99671.19
2022-10-16T03:49:12.788Z,99673.97
2022-10-16T03:52:00.757Z,99676.72
2022-10-16T03:54:48.673Z,99683.78
2022-10-16T03:57:36.720Z,99691.38
2022-10-16T04:00:26.052Z,99694.53
2022-10-16T04:03:14.094Z,99702.03
2022-10-16T04:06:02.050Z,99705.19
2022-10-16T04:08:49.939Z,99698.44
2022-10-16T04:11:37.908Z,99697.56
2022-10-16T04:14:25.819Z,99692.94
2022-10-16T04:17:15.135Z,99698.06
2022-10-16T04:20:03.303Z,99713.50
2022-10-16T04:22:51.217Z,99713.13
2022-10-16T04:25:39.112Z,99704.91
2022-10-16T04:28:27.406Z,99716.72
2022-10-16T04:31:15.333Z,99715.59
2022-10-16T04:34:04.585Z,99719.06
2022-10-16T04:36:52.520Z,99706.22
2022-10-16T04:39:40.407Z,99703.44
2022-10-16T04:42:28.326Z,99708.50
2022-10-16T04:45:17.285Z,99713.28
2022-10-16T04:48:05.515Z,99643.78
2022-10-16T04:50:55.338Z,99714.94
2022-10-16T04:53:43.263Z,99713.09
2022-10-16T04:56:31.183Z,99707.91
2022-10-16T04:59:19.903Z,99705.13
2022-10-16T05:02:07.813Z,99699.63
2022-10-16T05:04:55.717Z,99704.41
2022-10-16T05:07:44.962Z,99695.28
2022-10-16T05:10:32.984Z,99692.56
2022-10-16T05:13:20.902Z,99697.16
2022-10-16T05:16:08.887Z,99709.78
2022-10-16T05:19:22.524Z,99709.31
2022-10-16T05:22:05.269Z,99705.63
2022-10-16T05:24:54.488Z,99707.13
2022-10-16T05:27:42.447Z,99707.84
2022-10-16T05:30:30.438Z,99697.88
2022-10-16T05:33:18.493Z,99685.34
2022-10-16T05:36:08.965Z,99682.06
2022-10-16T05:38:56.853Z,99681.66
2022-10-16T05:41:46.138Z,99686.47
2022-10-16T05:47:27.556Z,99694.72
2022-10-16T05:50:15.725Z,99701.56
2022-10-16T05:53:03.835Z,99717.31
2022-10-16T05:55:54.088Z,99723.78
2022-10-16T05:58:45.177Z,99734.47
2022-10-16T06:01:33.767Z,99740.38
2022-10-16T06:04:01.487Z,99749.91
2022-10-16T06:06:30.546Z,99754.72
2022-10-16T06:09:00.608Z,99750.03
2022-10-16T06:11:31.033Z,99745.75
2022-10-16T06:14:03.646Z,99750.13
2022-10-16T06:16:31.856Z,99760.06
2022-10-16T06:19:00.373Z,99779.03
2022-10-16T06:21:29.630Z,99763.69
2022-10-16T06:23:58.911Z,99725.16
2022-10-16T06:26:29.031Z,99770.44
2022-10-16T06:28:57.785Z,99787.00
2022-10-16T06:31:29.981Z,99779.41
2022-10-16T06:33:57.644Z,99778.50
2022-10-16T06:36:26.219Z,99790.34
2022-10-16T06:38:54.179Z,99790.00
2022-10-16T06:41:23.831Z,99784.22
2022-10-16T06:43:51.507Z,99785.66
2022-10-16T06:46:21.700Z,99782.50
2022-10-16T06:48:50.777Z,99791.09
2022-10-16T06:51:19.981Z,99793.47
2022-10-16T06:54:05.661Z,99790.00
2022-10-16T06:56:34.747Z,99798.84
2022-10-16T06:59:02.950Z,99813.88
2022-10-16T07:01:31.096Z,99818.34
2022-10-16T07:04:00.322Z,99815.00
2022-10-16T07:06:29.201Z,99802.72
2022-10-16T07:08:56.802Z,99816.97
2022-10-16T07:11:25.570Z,99814.09
2022-10-16T07:13:55.823Z,99815.75
2022-10-16T07:16:26.476Z,99822.09
2022-10-16T07:18:59.269Z,99831.22
2022-10-16T07:21:30.462Z,99837.91
2022-10-16T07:24:00.488Z,99841.59
2022-10-16T07:26:30.901Z,99839.06
2022-10-16T07:28:58.766Z,99833.13
2022-10-16T07:31:27.203Z,99851.50
2022-10-16T07:33:55.615Z,99858.75
2022-10-16T07:36:23.867Z,99861.75
2022-10-16T07:38:55.517Z,99864.41
2022-10-16T07:41:26.409Z,99870.34
2022-10-16T07:43:55.837Z,99858.56
2022-10-16T07:46:24.833Z,99874.06
2022-10-16T07:48:52.956Z,99876.31
2022-10-16T07:51:22.438Z,99885.38
2022-10-16T07:53:50.740Z,99881.03
2022-10-16T07:56:20.981Z,99881.53
2022-10-16T07:58:50.624Z,99883.69
2022-10-16T08:01:19.106Z,99888.63
2022-10-16T08:03:49.066Z,99889.28
2022-10-16T08:06:17.027Z,99885.16
2022-10-16T08:08:44.909Z,99871.63
2022-10-16T08:11:12.622Z,99889.59
2022-10-16T08:13:41.611Z,99903.28
2022-10-16T08:16:10.700Z,99913.69
2022-10-16T08:18:39.874Z,99900.34
2022-10-16T08:21:08.519Z,99903.97
2022-10-16T08:23:36.209Z,99899.47
2022-10-16T08:26:07.052Z,99899.13
2022-10-16T08:28:35.639Z,99902.31
2022-10-16T08:31:09.779Z,99908.88
2022-10-16T08:33:37.922Z,99928.97
2022-10-16T08:36:07.114Z,99922.69
2022-10-16T08:38:35.598Z,99923.47
2022-10-16T08:41:21.493Z,99920.69
2022-10-16T08:44:05.233Z,99928.97
2022-10-16T08:46:49.636Z,99939.63
2022-10-16T08:49:19.118Z,99961.56
2022-10-16T08:51:47.427Z,99977.47
2022-10-16T08:54:24.984Z,99983.03
2022-10-16T08:56:52.643Z,100002.44
2022-10-16T08:59:21.165Z,100008.91
2022-10-16T09:01:54.028Z,99987.94
2022-10-16T09:04:46.317Z,99982.47
2022-10-16T09:07:20.363Z,99998.28
2022-10-16T09:10:00.329Z,100003.81
2022-10-16T09:12:32.769Z,99993.13
2022-10-16T09:15:12.268Z,100018.97
2022-10-16T09:17:54.965Z,100012.03
2022-10-16T09:20:32.246Z,100022.16
2022-10-16T09:23:14.743Z,100022.50
2022-10-16T09:25:46.369Z,100024.34
2022-10-16T09:28:14.000Z,100021.13
2022-10-16T09:30:41.890Z,100000.16
2022-10-16T09:33:13.138Z,99986.25
2022-10-16T09:35:43.808Z,100000.91
2022-10-16T09:38:23.374Z,99999.72
2022-10-16T09:40:58.966Z,99998.38
2022-10-16T09:43:36.199Z,100005.97
2022-10-16T09:46:05.676Z,99991.63
2022-10-16T09:48:39.149Z,99997.03
2022-10-16T09:51:08.785Z,100000.53
2022-10-16T09:53:42.390Z,100001.69
2022-10-16T09:56:14.646Z,100003.19
2022-10-16T09:58:46.348Z,100003.28
2022-10-16T10:01:16.596Z,100004.22
2022-10-16T10:03:46.479Z,100000.81
2022-10-16T10:06:22.939Z,100009.41
2022-10-16T10:08:59.025Z,100007.97
2022-10-16T10:11:49.911Z,100006.72
2022-10-16T10:14:21.934Z,99989.44
2022-10-16T10:16:49.808Z,99999.94
2022-10-16T10:19:20.854Z,100008.72
2022-10-16T10:21:48.967Z,99999.66
2022-10-16T10:24:18.092Z,100001.94
2022-10-16T10:26:53.080Z,100005.69
2022-10-16T10:29:31.010Z,100004.97
2022-10-16T10:32:07.796Z,100012.75
2022-10-16T10:34:54.234Z,100021.63
2022-10-16T10:37:35.936Z,100019.50
2022-10-16T10:40:13.429Z,100022.47
2022-10-16T10:42:51.571Z,100014.72
2022-10-16T10:45:25.178Z,100014.19
2022-10-16T10:48:06.004Z,100008.81
2022-10-16T10:50:41.617Z,100015.28
2022-10-16T10:53:20.294Z,100020.06
2022-10-16T10:55:56.228Z,100016.63
2022-10-16T10:58:51.352Z,100011.06
2022-10-16T11:01:24.588Z,100002.25
2022-10-16T11:04:12.656Z,99996.66
2022-10-16T11:06:47.570Z,99998.41
2022-10-16T11:09:19.575Z,99996.41
2022-10-16T11:11:51.656Z,99998.91
2022-10-16T11:14:22.185Z,99999.28
2022-10-16T11:16:55.610Z,99996.31
2022-10-16T11:19:35.675Z,99991.16
2022-10-16T11:22:11.449Z,99992.22
2022-10-16T11:24:47.370Z,100007.41
2022-10-16T11:27:21.287Z,100011.13
2022-10-16T11:29:58.200Z,100004.47
2022-10-16T11:32:31.962Z,100005.41
2022-10-16T11:35:04.220Z,100010.56
2022-10-16T11:37:39.865Z,100009.44
2022-10-16T11:40:22.185Z,100020.34
2022-10-16T11:42:57.139Z,100016.22
2022-10-16T11:45:31.693Z,100000.13
2022-10-16T11:48:08.530Z,99979.41
2022-10-16T11:50:42.639Z,99999.38
2022-10-16T11:53:20.422Z,100004.22
2022-10-16T11:55:48.443Z,100007.47
2022-10-16T11:58:24.755Z,100007.03
2022-10-16T12:01:01.696Z,100015.38
2022-10-16T12:03:35.802Z,100006.75
2022-10-16T12:06:27.723Z,100010.38
2022-10-16T12:08:58.295Z,100010.59
2022-10-16T12:11:35.298Z,100003.69
2022-10-16T12:14:09.068Z,100008.75
2022-10-16T12:16:39.465Z,100002.53
2022-10-16T12:19:15.828Z,99997.53
2022-10-16T12:21:44.553Z,100006.97
2022-10-16T12:24:29.526Z,100011.56
2022-10-16T12:26:57.614Z,100013.56
2022-10-16T12:29:32.543Z,100007.16
2022-10-16T12:32:00.600Z,100003.44
2022-10-16T12:34:31.254Z,99998.09
2022-10-16T12:37:11.834Z,99999.31
2022-10-16T12:39:41.021Z,100000.22
2022-10-16T12:42:35.294Z,100009.81
2022-10-16T12:45:03.884Z,100000.94
2022-10-16T12:47:48.770Z,100001.50
2022-10-16T12:50:29.188Z,100001.28
2022-10-16T12:52:56.897Z,99991.13
2022-10-16T12:55:26.483Z,99983.84
2022-10-16T12:58:12.312Z,100008.88
2022-10-16T13:00:47.439Z,100000.16
2022-10-16T13:03:42.922Z,99988.38
2022-10-16T13:06:20.820Z,100001.28
2022-10-16T13:09:26.899Z,99995.72
2022-10-16T13:12:18.869Z,100009.09
2022-10-16T13:15:03.462Z,100003.94
2022-10-16T13:17:40.705Z,100007.91
2022-10-16T13:20:19.358Z,100002.25
2022-10-16T13:22:56.718Z,100005.03
2022-10-16T13:25:33.172Z,100001.03
2022-10-16T13:28:03.835Z,99985.84
2022-10-16T13:30:33.941Z,99989.75
2022-10-16T13:33:04.179Z,99997.19
2022-10-16T13:35:33.968Z,100008.81
2022-10-16T13:38:15.465Z,100008.22
2022-10-16T13:40:54.456Z,100011.91
2022-10-16T13:43:27.983Z,100015.78
2022-10-16T13:46:00.773Z,100018.38
2022-10-16T13:48:28.525Z,100004.75
2022-10-16T13:51:07.971Z,100010.41
2022-10-16T13:53:37.136Z,100002.00
2022-10-16T13:56:07.498Z,100008.69
2022-10-16T13:58:36.468Z,100015.59
2022-10-16T14:01:07.600Z,100002.03
2022-10-16T14:03:37.132Z,100027.41
2022-10-16T14:06:09.792Z,100021.97
2022-10-16T14:08:37.473Z,100010.69
2022-10-16T14:11:05.276Z,100008.50
2022-10-16T14:13:38.407Z,100010.31
2022-10-16T14:16:10.209Z,100017.44
2022-10-16T14:18:40.620Z,100017.53
2022-10-16T14:21:13.825Z,100013.16
2022-10-16T14:23:42.887Z,100010.50
2022-10-16T14:26:16.975Z,99987.56
2022-10-16T14:28:47.690Z,100005.25
2022-10-16T14:31:30.614Z,99998.16
2022-10-16T14:34:01.610Z,100000.16
2022-10-16T14:36:30.668Z,100010.19
2022-10-16T14:39:02.984Z,100000.72
2022-10-16T14:41:32.445Z,99997.56
2022-10-16T14:44:04.890Z,99927.88
2022-10-16T14:46:36.591Z,99992.50
2022-10-16T14:49:20.792Z,99993.13
2022-10-16T14:51:49.085Z,99991.03
2022-10-16T14:54:18.895Z,99987.31
2022-10-16T14:56:52.044Z,99989.06
2022-10-16T14:59:26.858Z,99992.88
2022-10-16T15:01:54.598Z,99994.44
2022-10-16T15:04:22.206Z,100009.78
2022-10-16T15:06:50.041Z,100011.88
2022-10-16T15:09:17.738Z,100012.91
2022-10-16T15:11:45.822Z,100012.72
2022-10-16T15:16:48.869Z,100011.25
2022-10-16T15:19:16.541Z,100006.44
2022-10-16T15:21:44.503Z,100008.88
2022-10-16T15:24:16.717Z,100016.00
2022-10-16T15:26:47.797Z,100018.81
2022-10-16T15:29:15.509Z,99978.84
2022-10-16T15:31:43.569Z,100022.75
2022-10-16T15:34:14.027Z,100029.66
2022-10-16T15:36:41.842Z,100025.81
2022-10-16T15:39:14.967Z,100024.06
2022-10-16T15:41:42.760Z,100023.91
2022-10-16T15:44:10.676Z,100021.00
2022-10-16T15:46:38.341Z,100023.66
2022-10-16T15:49:06.252Z,100032.31
2022-10-16T15:51:35.292Z,100025.41
2022-10-16T15:54:03.189Z,100032.97
2022-10-16T15:56:34.032Z,100019.81
2022-10-16T15:59:02.906Z,100035.56
2022-10-16T16:01:34.252Z,100036.22
2022-10-16T16:04:07.484Z,100036.84
2022-10-16T16:06:45.639Z,100045.63
2022-10-16T16:09:14.378Z,100037.41
2022-10-16T16:11:42.380Z,100030.72
2022-10-16T16:14:13.822Z,100036.91
2022-10-16T16:16:42.229Z,100035.97
2022-10-16T16:19:11.690Z,99957.91
2022-10-16T16:21:40.180Z,100039.72
2022-10-16T16:24:09.721Z,100040.69
2022-10-16T16:26:40.791Z,100042.81
2022-10-16T16:29:09.370Z,100040.97
2022-10-16T16:31:37.181Z,100035.78
2022-10-16T16:34:05.117Z,100037.41
2022-10-16T16:36:33.824Z,100021.47
2022-10-16T16:39:01.560Z,100034.16
2022-10-16T16:41:31.976Z,100038.09
2022-10-16T16:44:04.416Z,100037.47
2022-10-16T16:46:32.931Z,100039.81
2022-10-16T16:49:00.908Z,100044.16
2022-10-16T16:51:28.807Z,100044.22
2022-10-16T16:53:56.742Z,100012.81
2022-10-16T16:56:25.830Z,100042.56
2022-10-16T16:58:56.865Z,100048.13
2022-10-16T17:01:26.347Z,100062.47
2022-10-16T17:03:56.222Z,100047.53
2022-10-16T17:06:26.961Z,100072.41
2022-10-16T17:08:55.358Z,100069.34
2022-10-16T17:11:24.699Z,100076.50
2022-10-16T17:13:56.959Z,100065.88
2022-10-16T17:16:28.034Z,100068.75
2022-10-16T17:18:55.903Z,100064.47
2022-10-16T17:21:23.693Z,100072.00
2022-10-16T17:23:53.722Z,100064.97
2022-10-16T17:26:21.721Z,100066.22
2022-10-16T17:28:53.042Z,100062.19
2022-10-16T17:31:23.715Z,100079.66
2022-10-16T17:33:52.474Z,100067.13
2022-10-16T17:36:21.885Z,100077.41
2022-10-16T17:38:50.358Z,100038.91
2022-10-16T17:41:20.986Z,99991.63
2022-10-16T17:43:49.398Z,100075.88
2022-10-16T17:46:19.214Z,100074.00
2022-10-16T17:48:50.786Z,100077.53
2022-10-16T17:51:21.141Z,100073.19
2022-10-16T17:53:49.892Z,100083.13
2022-10-16T17:56:17.928Z,100081.13
2022-10-16T17:58:49.010Z,100087.03
2022-10-16T18:01:21.993Z,100088.56
2022-10-16T18:03:52.313Z,100091.00
2022-10-16T18:06:23.094Z,100091.91
2022-10-16T18:08:51.328Z,100092.28
2022-10-16T18:11:19.279Z,100096.63
2022-10-16T18:13:47.097Z,100101.84
2022-10-16T18:16:16.517Z,100104.97
2022-10-16T18:18:45.864Z,100105.50
2022-10-16T18:21:17.297Z,100104.59
2022-10-16T18:23:50.919Z,100061.31
2022-10-16T18:26:21.024Z,100105.88
2022-10-16T18:28:48.920Z,100099.94
2022-10-16T18:31:18.205Z,100058.16
2022-10-16T18:33:50.358Z,100096.81
2022-10-16T18:36:21.802Z,100089.75
2022-10-16T18:38:50.208Z,100091.72
2022-10-16T18:41:17.977Z,100083.84
2022-10-16T18:43:45.643Z,100094.88
2022-10-16T18:46:16.029Z,100102.75
2022-10-16T18:48:44.721Z,100098.75
2022-10-16T18:51:14.796Z,100100.44
2022-10-16T18:53:46.884Z,100101.56
2022-10-16T18:56:16.152Z,100101.06
2022-10-16T18:58:45.367Z,100097.56
2022-10-16T19:01:16.318Z,100103.00
2022-10-16T19:03:44.919Z,100098.16
2022-10-16T19:06:14.954Z,100100.91
2022-10-16T19:08:44.431Z,100089.38
2022-10-16T19:11:15.081Z,100096.16
2022-10-16T19:13:43.144Z,100100.81
2022-10-16T19:16:20.342Z,100096.69
2022-10-16T19:18:49.452Z,100096.88
2022-10-16T19:21:18.470Z,100101.06
2022-10-16T19:23:48.083Z,100101.00
2022-10-16T19:26:18.028Z,100104.34
2022-10-16T19:28:46.473Z,100089.41
2022-10-16T19:31:16.498Z,100113.63
2022-10-16T19:33:44.351Z,100116.31
2022-10-16T19:36:13.882Z,100109.88
2022-10-16T19:38:42.653Z,100116.28
2022-10-16T19:41:14.038Z,100122.41
2022-10-16T19:43:42.301Z,100119.66
2022-10-16T19:46:12.612Z,100118.63
2022-10-16T19:48:40.957Z,100125.72
2022-10-16T19:51:12.590Z,100126.72
2022-10-16T19:53:40.246Z,100128.78
2022-10-16T19:56:16.087Z,100133.34
2022-10-16T19:58:44.525Z,100126.78
2022-10-16T20:01:13.143Z,100135.22
2022-10-16T20:03:59.940Z,100142.81
2022-10-16T20:06:47.863Z,100140.50
2022-10-16T20:09:36.091Z,100144.81
2022-10-16T20:12:25.335Z,100148.97
2022-10-16T20:15:13.237Z,100146.28
2022-10-16T20:18:01.140Z,100147.22
2022-10-16T20:20:52.216Z,100153.13
2022-10-16T20:23:40.978Z,100146.63
2022-10-16T20:26:29.206Z,100163.25
2022-10-16T20:29:18.618Z,100167.34
2022-10-16T20:32:06.553Z,100170.34
2022-10-16T20:34:54.435Z,100184.63
2022-10-16T20:37:44.666Z,100081.88
2022-10-16T20:40:35.067Z,100184.47
2022-10-16T20:43:23.088Z,100179.69
2022-10-16T20:46:14.258Z,100191.16
2022-10-16T20:49:10.678Z,100200.66
2022-10-16T20:51:59.347Z,100197.19
2022-10-16T20:54:47.295Z,100202.09
2022-10-16T20:57:35.223Z,100205.75
2022-10-16T21:00:23.241Z,100204.19
2022-10-16T21:03:13.038Z,100206.19
2022-10-16T21:06:03.157Z,100204.66
2022-10-16T21:08:51.551Z,100202.72
2022-10-16T21:11:39.768Z,100206.66
2022-10-16T21:14:27.699Z,100207.09
2022-10-16T21:17:15.647Z,100203.56
2022-10-16T21:20:05.679Z,100205.94
2022-10-16T21:22:53.619Z,100203.94
2022-10-16T21:25:49.078Z,100208.72
2022-10-16T21:28:37.042Z,100144.88
2022-10-16T21:31:25.178Z,100210.34
2022-10-16T21:34:13.165Z,100211.91
2022-10-16T21:37:02.440Z,100211.13
2022-10-16T21:39:50.410Z,100227.75
2022-10-16T21:42:38.382Z,100215.91
2022-10-16T21:45:26.384Z,100220.28
2022-10-16T21:48:14.302Z,100217.50
2022-10-16T21:51:02.313Z,100214.72
2022-10-16T21:53:51.549Z,100215.16
2022-10-16T21:56:39.875Z,100221.44
2022-10-16T21:59:27.800Z,100219.91
2022-10-16T22:02:15.719Z,100207.63
2022-10-16T22:05:03.712Z,100212.38
2022-10-16T22:07:51.624Z,100213.56
2022-10-16T22:10:40.915Z,100216.75
2022-10-16T22:13:28.801Z,100221.50
2022-10-16T22:16:20.713Z,100221.09
2022-10-16T22:19:08.949Z,100233.78
2022-10-16T22:21:57.352Z,100220.72
2022-10-16T22:24:45.436Z,100220.34
2022-10-16T22:27:34.700Z,100232.59
2022-10-16T22:30:22.683Z,100228.22
2022-10-16T22:33:10.604Z,100227.03
2022-10-16T22:36:00.975Z,100224.72
2022-10-16T22:38:49.013Z,100213.63
2022-10-16T22:41:37.088Z,100219.94
2022-10-16T22:44:30.903Z,100234.56
2022-10-16T22:47:18.786Z,100223.03
2022-10-16T22:50:07.472Z,100224.22
2022-10-16T22:52:56.636Z,100227.00
2022-10-16T22:55:45.338Z,100230.97
2022-10-16T22:58:33.542Z,100240.84
2022-10-16T23:01:24.821Z,100244.00
2022-10-16T23:04:12.790Z,100242.00
2022-10-16T23:07:01.072Z,100240.47
2022-10-16T23:09:49.060Z,100241.25
2022-10-16T23:12:37.503Z,100248.78
2022-10-16T23:15:25.465Z,100246.38
2022-10-16T23:18:14.744Z,100245.94
2022-10-16T23:21:05.928Z,100253.09
2022-10-16T23:23:55.086Z,100256.25
2022-10-16T23:26:43.046Z,100262.63
2022-10-16T23:29:31.010Z,100252.31
2022-10-16T23:32:18.944Z,100257.09
2022-10-16T23:35:09.120Z,100257.91
2022-10-16T23:37:58.126Z,100263.44
2022-10-16T23:40:46.052Z,100274.94
2022-10-16T23:43:34.047Z,100276.53
2022-10-16T23:46:22.076Z,100279.31
2022-10-16T23:49:10.103Z,100273.00
2022-10-16T23:51:59.344Z,100278.50
2022-10-16T23:54:47.248Z,100282.09
2022-10-16T23:57:35.150Z,100285.25
